sensor_id;sensor_type;location;lat;lon;timestamp;P1;P2;P0
69746;PMS7003;57018;50.278;19.134;2023-07-13T00:01:36;12.00;12.00;8.50
69746;PMS7003;57018;50.278;19.134;2023-07-13T00:04:06;10.00;9.00;7.00
69746;PMS7003;57018;50.278;19.134;2023-07-13T00:06:36;10.00;10.00;6.00
69746;PMS7003;57018;50.278;19.134;2023-07-13T00:09:05;10.00;10.00;7.00
69746;PMS7003;57018;50.278;19.134;2023-07-13T00:11:36;12.33;8.67;6.67
69746;PMS7003;57018;50.278;19.134;2023-07-13T00:14:06;10.00;10.00;7.50
69746;PMS7003;57018;50.278;19.134;2023-07-13T00:16:37;13.67;10.33;8.33
69746;PMS7003;57018;50.278;19.134;2023-07-13T00:19:10;9.00;9.00;7.00
69746;PMS7003;57018;50.278;19.134;2023-07-13T00:21:41;8.00;8.00;6.00
69746;PMS7003;57018;50.278;19.134;2023-07-13T00:24:12;8.00;8.00;6.00
69746;PMS7003;57018;50.278;19.134;2023-07-13T00:26:45;13.00;11.50;7.50
69746;PMS7003;57018;50.278;19.134;2023-07-13T00:29:15;8.00;8.00;6.00
69746;PMS7003;57018;50.278;19.134;2023-07-13T00:31:45;14.00;10.00;8.00
69746;PMS7003;57018;50.278;19.134;2023-07-13T00:34:14;9.00;9.00;5.00
69746;PMS7003;57018;50.278;19.134;2023-07-13T00:36:44;11.75;9.50;6.00
69746;PMS7003;57018;50.278;19.134;2023-07-13T00:39:14;10.50;8.75;5.75
69746;PMS7003;57018;50.278;19.134;2023-07-13T00:41:44;10.00;8.50;5.50
69746;PMS7003;57018;50.278;19.134;2023-07-13T00:44:14;9.50;9.50;6.75
69746;PMS7003;57018;50.278;19.134;2023-07-13T00:46:45;9.50;9.50;7.00
69746;PMS7003;57018;50.278;19.134;2023-07-13T00:49:16;13.50;11.50;9.50
69746;PMS7003;57018;50.278;19.134;2023-07-13T00:51:50;10.00;9.50;7.00
69746;PMS7003;57018;50.278;19.134;2023-07-13T00:54:24;12.50;11.00;6.00
69746;PMS7003;57018;50.278;19.134;2023-07-13T00:56:57;10.00;10.00;7.50
69746;PMS7003;57018;50.278;19.134;2023-07-13T00:59:29;11.50;11.00;6.50
69746;PMS7003;57018;50.278;19.134;2023-07-13T01:02:03;9.75;9.25;6.00
69746;PMS7003;57018;50.278;19.134;2023-07-13T01:04:33;10.00;10.00;7.00
69746;PMS7003;57018;50.278;19.134;2023-07-13T01:07:03;13.00;12.00;9.50
69746;PMS7003;57018;50.278;19.134;2023-07-13T01:09:34;11.00;11.00;8.00
69746;PMS7003;57018;50.278;19.134;2023-07-13T01:12:04;10.00;9.00;6.00
69746;PMS7003;57018;50.278;19.134;2023-07-13T01:14:35;10.00;9.00;8.00
69746;PMS7003;57018;50.278;19.134;2023-07-13T01:17:05;16.33;16.00;10.00
69746;PMS7003;57018;50.278;19.134;2023-07-13T01:19:38;15.00;13.00;9.50
69746;PMS7003;57018;50.278;19.134;2023-07-13T01:22:11;14.00;13.00;10.50
69746;PMS7003;57018;50.278;19.134;2023-07-13T01:24:43;19.00;16.00;10.50
69746;PMS7003;57018;50.278;19.134;2023-07-13T01:27:15;13.50;12.00;10.00
69746;PMS7003;57018;50.278;19.134;2023-07-13T01:29:50;10.00;10.00;9.00
69746;PMS7003;57018;50.278;19.134;2023-07-13T01:32:28;17.00;14.50;10.50
69746;PMS7003;57018;50.278;19.134;2023-07-13T01:34:59;16.00;13.00;8.50
69746;PMS7003;57018;50.278;19.134;2023-07-13T01:37:29;12.00;12.00;10.00
69746;PMS7003;57018;50.278;19.134;2023-07-13T01:40:00;14.00;11.00;8.00
69746;PMS7003;57018;50.278;19.134;2023-07-13T01:42:31;17.00;16.00;9.00
69746;PMS7003;57018;50.278;19.134;2023-07-13T01:45:01;17.00;16.00;11.00
69746;PMS7003;57018;50.278;19.134;2023-07-13T01:47:31;15.50;15.00;10.00
69746;PMS7003;57018;50.278;19.134;2023-07-13T01:50:00;17.00;16.00;12.00
69746;PMS7003;57018;50.278;19.134;2023-07-13T01:52:30;17.00;17.00;11.00
69746;PMS7003;57018;50.278;19.134;2023-07-13T01:55:00;13.50;11.50;8.50
69746;PMS7003;57018;50.278;19.134;2023-07-13T01:57:30;18.00;16.33;12.00
69746;PMS7003;57018;50.278;19.134;2023-07-13T02:00:00;15.00;12.00;9.00
69746;PMS7003;57018;50.278;19.134;2023-07-13T02:02:31;17.00;17.00;11.00
69746;PMS7003;57018;50.278;19.134;2023-07-13T02:05:01;19.00;16.00;11.33
69746;PMS7003;57018;50.278;19.134;2023-07-13T02:07:32;15.00;12.50;10.50
69746;PMS7003;57018;50.278;19.134;2023-07-13T02:10:02;15.33;14.00;9.67
69746;PMS7003;57018;50.278;19.134;2023-07-13T02:12:33;16.00;16.00;12.00
69746;PMS7003;57018;50.278;19.134;2023-07-13T02:15:04;12.50;11.00;9.00
69746;PMS7003;57018;50.278;19.134;2023-07-13T02:17:35;17.00;16.67;10.67
69746;PMS7003;57018;50.278;19.134;2023-07-13T02:20:07;15.00;15.00;9.00
69746;PMS7003;57018;50.278;19.134;2023-07-13T02:22:37;16.00;15.00;11.00
69746;PMS7003;57018;50.278;19.134;2023-07-13T02:25:07;15.00;14.00;8.00
69746;PMS7003;57018;50.278;19.134;2023-07-13T02:27:37;15.00;11.50;9.00
69746;PMS7003;57018;50.278;19.134;2023-07-13T02:30:08;13.00;13.00;8.00
69746;PMS7003;57018;50.278;19.134;2023-07-13T02:32:38;16.00;15.67;11.33
69746;PMS7003;57018;50.278;19.134;2023-07-13T02:35:10;13.50;13.00;9.50
69746;PMS7003;57018;50.278;19.134;2023-07-13T02:37:40;17.00;17.00;10.00
69746;PMS7003;57018;50.278;19.134;2023-07-13T02:40:10;16.50;13.00;10.50
69746;PMS7003;57018;50.278;19.134;2023-07-13T02:42:40;21.00;18.00;11.50
69746;PMS7003;57018;50.278;19.134;2023-07-13T02:45:10;16.00;16.00;11.00
69746;PMS7003;57018;50.278;19.134;2023-07-13T02:47:41;20.00;19.00;11.00
69746;PMS7003;57018;50.278;19.134;2023-07-13T02:50:11;14.50;12.00;8.00
69746;PMS7003;57018;50.278;19.134;2023-07-13T02:55:09;16.00;15.00;9.00
69746;PMS7003;57018;50.278;19.134;2023-07-13T02:57:39;12.00;12.00;8.00
69746;PMS7003;57018;50.278;19.134;2023-07-13T03:00:10;12.00;10.00;8.00
69746;PMS7003;57018;50.278;19.134;2023-07-13T03:02:43;9.00;9.00;7.33
69746;PMS7003;57018;50.278;19.134;2023-07-13T03:05:13;9.00;9.00;8.00
69746;PMS7003;57018;50.278;19.134;2023-07-13T03:07:43;10.00;9.00;6.00
69746;PMS7003;57018;50.278;19.134;2023-07-13T03:10:13;10.00;10.00;7.00
69746;PMS7003;57018;50.278;19.134;2023-07-13T03:12:44;16.00;11.00;7.50
69746;PMS7003;57018;50.278;19.134;2023-07-13T03:15:14;10.67;9.67;7.67
69746;PMS7003;57018;50.278;19.134;2023-07-13T03:17:44;12.00;12.00;8.00
69746;PMS7003;57018;50.278;19.134;2023-07-13T03:20:13;11.50;10.50;7.00
69746;PMS7003;57018;50.278;19.134;2023-07-13T03:22:43;14.00;12.00;8.00
69746;PMS7003;57018;50.278;19.134;2023-07-13T03:25:14;10.00;10.00;7.00
69746;PMS7003;57018;50.278;19.134;2023-07-13T03:27:44;12.00;9.50;7.50
69746;PMS7003;57018;50.278;19.134;2023-07-13T03:30:14;11.50;11.00;9.50
69746;PMS7003;57018;50.278;19.134;2023-07-13T03:32:43;17.00;16.00;10.00
69746;PMS7003;57018;50.278;19.134;2023-07-13T03:35:13;16.00;15.50;10.50
69746;PMS7003;57018;50.278;19.134;2023-07-13T03:37:43;16.00;16.00;11.67
69746;PMS7003;57018;50.278;19.134;2023-07-13T03:40:13;14.00;11.50;9.00
69746;PMS7003;57018;50.278;19.134;2023-07-13T03:42:43;11.50;11.50;8.00
69746;PMS7003;57018;50.278;19.134;2023-07-13T03:45:13;12.00;12.00;9.50
69746;PMS7003;57018;50.278;19.134;2023-07-13T03:47:43;15.67;14.00;9.67
69746;PMS7003;57018;50.278;19.134;2023-07-13T03:50:13;12.33;12.33;8.67
69746;PMS7003;57018;50.278;19.134;2023-07-13T03:52:43;17.50;12.50;7.50
69746;PMS7003;57018;50.278;19.134;2023-07-13T03:55:13;15.50;15.00;9.00
69746;PMS7003;57018;50.278;19.134;2023-07-13T03:57:43;18.00;15.00;10.00
69746;PMS7003;57018;50.278;19.134;2023-07-13T04:00:14;12.00;11.00;8.67
69746;PMS7003;57018;50.278;19.134;2023-07-13T04:02:44;8.00;8.00;6.00
69746;PMS7003;57018;50.278;19.134;2023-07-13T04:05:16;12.50;11.50;9.50
69746;PMS7003;57018;50.278;19.134;2023-07-13T04:07:46;13.50;13.50;8.50
69746;PMS7003;57018;50.278;19.134;2023-07-13T04:10:16;12.00;12.00;7.00
69746;PMS7003;57018;50.278;19.134;2023-07-13T04:12:46;14.00;12.00;7.00
69746;PMS7003;57018;50.278;19.134;2023-07-13T04:15:15;17.00;16.50;10.00
69746;PMS7003;57018;50.278;19.134;2023-07-13T04:17:45;19.00;17.00;13.00
69746;PMS7003;57018;50.278;19.134;2023-07-13T04:20:15;14.00;13.50;9.00
69746;PMS7003;57018;50.278;19.134;2023-07-13T04:22:47;13.50;12.50;9.00
69746;PMS7003;57018;50.278;19.134;2023-07-13T04:25:17;13.00;12.00;9.00
69746;PMS7003;57018;50.278;19.134;2023-07-13T04:27:47;11.00;9.00;6.00
69746;PMS7003;57018;50.278;19.134;2023-07-13T04:30:17;12.50;12.50;9.50
69746;PMS7003;57018;50.278;19.134;2023-07-13T04:32:47;8.00;8.00;6.00
69746;PMS7003;57018;50.278;19.134;2023-07-13T04:35:19;10.00;9.00;6.00
69746;PMS7003;57018;50.278;19.134;2023-07-13T04:37:49;13.50;12.50;8.50
69746;PMS7003;57018;50.278;19.134;2023-07-13T04:40:20;12.00;11.50;7.50
69746;PMS7003;57018;50.278;19.134;2023-07-13T04:42:50;12.00;12.00;8.00
69746;PMS7003;57018;50.278;19.134;2023-07-13T04:45:19;13.00;12.00;8.00
69746;PMS7003;57018;50.278;19.134;2023-07-13T04:47:51;14.50;11.50;9.50
69746;PMS7003;57018;50.278;19.134;2023-07-13T04:50:21;17.00;14.50;10.50
69746;PMS7003;57018;50.278;19.134;2023-07-13T04:52:51;15.33;13.33;10.00
69746;PMS7003;57018;50.278;19.134;2023-07-13T04:55:21;16.00;14.00;11.00
69746;PMS7003;57018;50.278;19.134;2023-07-13T04:57:51;12.67;12.67;9.00
69746;PMS7003;57018;50.278;19.134;2023-07-13T05:00:21;16.50;15.00;11.00
69746;PMS7003;57018;50.278;19.134;2023-07-13T05:02:53;18.00;14.50;10.00
69746;PMS7003;57018;50.278;19.134;2023-07-13T05:05:24;9.00;9.00;5.50
69746;PMS7003;57018;50.278;19.134;2023-07-13T05:07:54;13.00;12.00;9.00
69746;PMS7003;57018;50.278;19.134;2023-07-13T05:10:24;10.00;10.00;7.00
69746;PMS7003;57018;50.278;19.134;2023-07-13T05:12:54;14.00;11.00;7.50
69746;PMS7003;57018;50.278;19.134;2023-07-13T05:15:24;11.33;11.33;7.67
69746;PMS7003;57018;50.278;19.134;2023-07-13T05:17:54;10.67;10.33;7.33
69746;PMS7003;57018;50.278;19.134;2023-07-13T05:20:24;13.50;12.00;9.50
69746;PMS7003;57018;50.278;19.134;2023-07-13T05:22:54;15.00;13.00;9.00
69746;PMS7003;57018;50.278;19.134;2023-07-13T05:25:24;9.50;9.50;7.00
69746;PMS7003;57018;50.278;19.134;2023-07-13T05:27:53;12.00;11.50;10.00
69746;PMS7003;57018;50.278;19.134;2023-07-13T05:30:23;11.33;11.33;7.33
69746;PMS7003;57018;50.278;19.134;2023-07-13T05:32:53;18.00;13.00;9.00
69746;PMS7003;57018;50.278;19.134;2023-07-13T05:35:23;8.00;7.50;5.00
69746;PMS7003;57018;50.278;19.134;2023-07-13T05:37:53;10.00;10.00;7.00
69746;PMS7003;57018;50.278;19.134;2023-07-13T05:40:23;11.00;11.00;7.33
69746;PMS7003;57018;50.278;19.134;2023-07-13T05:42:53;11.00;8.00;6.00
69746;PMS7003;57018;50.278;19.134;2023-07-13T05:45:22;13.00;13.00;8.00
69746;PMS7003;57018;50.278;19.134;2023-07-13T05:47:52;10.00;10.00;7.00
69746;PMS7003;57018;50.278;19.134;2023-07-13T05:50:23;12.00;12.00;9.00
69746;PMS7003;57018;50.278;19.134;2023-07-13T05:52:53;11.00;11.00;8.00
69746;PMS7003;57018;50.278;19.134;2023-07-13T05:55:23;11.50;10.50;6.50
69746;PMS7003;57018;50.278;19.134;2023-07-13T05:57:53;11.00;11.00;8.00
69746;PMS7003;57018;50.278;19.134;2023-07-13T06:00:24;13.00;12.00;9.00
69746;PMS7003;57018;50.278;19.134;2023-07-13T06:02:55;11.50;10.00;7.00
69746;PMS7003;57018;50.278;19.134;2023-07-13T06:05:25;10.00;10.00;7.00
69746;PMS7003;57018;50.278;19.134;2023-07-13T06:07:55;10.50;10.00;7.50
69746;PMS7003;57018;50.278;19.134;2023-07-13T06:10:25;9.50;9.50;7.50
69746;PMS7003;57018;50.278;19.134;2023-07-13T06:12:55;13.50;12.00;9.50
69746;PMS7003;57018;50.278;19.134;2023-07-13T06:15:25;13.00;12.00;9.00
69746;PMS7003;57018;50.278;19.134;2023-07-13T06:17:55;11.00;9.50;7.00
69746;PMS7003;57018;50.278;19.134;2023-07-13T06:20:25;11.50;10.00;8.00
69746;PMS7003;57018;50.278;19.134;2023-07-13T06:22:55;11.00;11.00;8.00
69746;PMS7003;57018;50.278;19.134;2023-07-13T06:25:25;12.50;12.50;8.00
69746;PMS7003;57018;50.278;19.134;2023-07-13T06:27:55;12.00;10.00;8.00
69746;PMS7003;57018;50.278;19.134;2023-07-13T06:30:25;10.00;10.00;7.00
69746;PMS7003;57018;50.278;19.134;2023-07-13T06:32:55;8.50;8.50;7.00
69746;PMS7003;57018;50.278;19.134;2023-07-13T06:35:24;9.00;9.00;7.00
69746;PMS7003;57018;50.278;19.134;2023-07-13T06:37:55;11.00;10.00;7.00
69746;PMS7003;57018;50.278;19.134;2023-07-13T06:40:24;10.33;10.00;7.00
69746;PMS7003;57018;50.278;19.134;2023-07-13T06:42:57;12.00;10.00;7.00
69746;PMS7003;57018;50.278;19.134;2023-07-13T06:45:27;10.33;10.33;7.00
69746;PMS7003;57018;50.278;19.134;2023-07-13T06:47:57;13.50;12.50;9.00
69746;PMS7003;57018;50.278;19.134;2023-07-13T06:50:26;10.00;9.00;6.00
69746;PMS7003;57018;50.278;19.134;2023-07-13T06:52:57;11.00;9.00;7.00
69746;PMS7003;57018;50.278;19.134;2023-07-13T06:55:28;11.00;9.00;6.00
69746;PMS7003;57018;50.278;19.134;2023-07-13T06:57:58;9.00;9.00;7.00
69746;PMS7003;57018;50.278;19.134;2023-07-13T07:00:28;8.00;8.00;6.00
69746;PMS7003;57018;50.278;19.134;2023-07-13T07:02:58;12.00;10.00;7.00
69746;PMS7003;57018;50.278;19.134;2023-07-13T07:05:28;11.00;10.00;7.33
69746;PMS7003;57018;50.278;19.134;2023-07-13T07:07:58;9.00;9.00;7.00
69746;PMS7003;57018;50.278;19.134;2023-07-13T07:10:29;11.00;11.00;7.00
69746;PMS7003;57018;50.278;19.134;2023-07-13T07:12:59;10.00;10.00;7.00
69746;PMS7003;57018;50.278;19.134;2023-07-13T07:15:30;8.00;8.00;6.00
69746;PMS7003;57018;50.278;19.134;2023-07-13T07:17:59;8.50;8.50;7.50
69746;PMS7003;57018;50.278;19.134;2023-07-13T07:20:29;12.00;10.00;7.00
69746;PMS7003;57018;50.278;19.134;2023-07-13T07:22:59;13.00;10.00;7.00
69746;PMS7003;57018;50.278;19.134;2023-07-13T07:25:29;9.50;9.00;7.00
69746;PMS7003;57018;50.278;19.134;2023-07-13T07:28:01;8.00;8.00;7.00
69746;PMS7003;57018;50.278;19.134;2023-07-13T07:30:31;10.00;10.00;7.50
69746;PMS7003;57018;50.278;19.134;2023-07-13T07:33:02;9.00;8.00;6.00
69746;PMS7003;57018;50.278;19.134;2023-07-13T07:35:32;9.00;9.00;7.00
69746;PMS7003;57018;50.278;19.134;2023-07-13T07:38:02;10.00;10.00;8.00
69746;PMS7003;57018;50.278;19.134;2023-07-13T07:40:32;10.00;7.00;5.00
69746;PMS7003;57018;50.278;19.134;2023-07-13T07:43:06;10.00;10.00;8.33
69746;PMS7003;57018;50.278;19.134;2023-07-13T07:45:36;12.00;11.33;8.33
69746;PMS7003;57018;50.278;19.134;2023-07-13T07:48:07;11.00;10.00;8.50
69746;PMS7003;57018;50.278;19.134;2023-07-13T07:50:37;10.33;10.33;8.33
69746;PMS7003;57018;50.278;19.134;2023-07-13T07:53:06;12.00;12.00;8.50
69746;PMS7003;57018;50.278;19.134;2023-07-13T07:55:37;16.00;15.00;12.00
69746;PMS7003;57018;50.278;19.134;2023-07-13T07:58:07;10.00;10.00;8.00
69746;PMS7003;57018;50.278;19.134;2023-07-13T08:00:37;9.00;9.00;6.50
69746;PMS7003;57018;50.278;19.134;2023-07-13T08:03:07;7.00;7.00;4.00
69746;PMS7003;57018;50.278;19.134;2023-07-13T08:05:37;9.00;9.00;7.00
69746;PMS7003;57018;50.278;19.134;2023-07-13T08:08:07;9.00;8.50;6.50
69746;PMS7003;57018;50.278;19.134;2023-07-13T08:10:37;11.00;11.00;7.00
69746;PMS7003;57018;50.278;19.134;2023-07-13T08:13:06;9.67;8.00;6.00
69746;PMS7003;57018;50.278;19.134;2023-07-13T08:15:37;13.67;13.67;10.33
69746;PMS7003;57018;50.278;19.134;2023-07-13T08:18:07;11.00;11.00;6.67
69746;PMS7003;57018;50.278;19.134;2023-07-13T08:20:38;11.50;10.50;7.00
69746;PMS7003;57018;50.278;19.134;2023-07-13T08:23:08;12.00;11.00;9.00
69746;PMS7003;57018;50.278;19.134;2023-07-13T08:25:39;13.50;12.00;9.50
69746;PMS7003;57018;50.278;19.134;2023-07-13T08:28:09;11.00;11.00;8.00
69746;PMS7003;57018;50.278;19.134;2023-07-13T08:30:39;12.00;12.00;10.00
69746;PMS7003;57018;50.278;19.134;2023-07-13T08:33:09;14.50;12.50;10.50
69746;PMS7003;57018;50.278;19.134;2023-07-13T08:35:39;17.50;15.00;9.50
69746;PMS7003;57018;50.278;19.134;2023-07-13T08:38:09;12.50;12.50;10.00
69746;PMS7003;57018;50.278;19.134;2023-07-13T08:40:38;13.50;13.50;10.00
69746;PMS7003;57018;50.278;19.134;2023-07-13T08:43:11;17.50;15.50;11.00
69746;PMS7003;57018;50.278;19.134;2023-07-13T08:45:45;15.67;13.67;9.33
69746;PMS7003;57018;50.278;19.134;2023-07-13T08:48:19;14.50;14.50;10.50
69746;PMS7003;57018;50.278;19.134;2023-07-13T08:53:27;17.00;16.00;10.00
69746;PMS7003;57018;50.278;19.134;2023-07-13T08:56:00;20.50;16.50;12.00
69746;PMS7003;57018;50.278;19.134;2023-07-13T08:58:32;16.00;14.00;10.00
69746;PMS7003;57018;50.278;19.134;2023-07-13T09:01:06;19.00;18.00;12.00
69746;PMS7003;57018;50.278;19.134;2023-07-13T09:03:45;18.33;18.33;13.67
69746;PMS7003;57018;50.278;19.134;2023-07-13T09:06:27;17.50;17.50;13.00
69746;PMS7003;57018;50.278;19.134;2023-07-13T09:09:06;21.00;20.00;15.00
69746;PMS7003;57018;50.278;19.134;2023-07-13T09:11:46;25.00;24.00;19.50
69746;PMS7003;57018;50.278;19.134;2023-07-13T09:17:14;15.00;12.00;10.00
69746;PMS7003;57018;50.278;19.134;2023-07-13T09:19:48;24.00;23.67;16.33
69746;PMS7003;57018;50.278;19.134;2023-07-13T09:22:24;20.00;19.33;13.67
69746;PMS7003;57018;50.278;19.134;2023-07-13T09:24:57;21.00;19.00;13.00
69746;PMS7003;57018;50.278;19.134;2023-07-13T09:27:33;20.50;18.50;15.00
69746;PMS7003;57018;50.278;19.134;2023-07-13T09:30:20;21.00;20.00;15.00
69746;PMS7003;57018;50.278;19.134;2023-07-13T09:32:58;18.00;17.00;13.00
69746;PMS7003;57018;50.278;19.134;2023-07-13T09:35:28;11.00;11.00;7.00
69746;PMS7003;57018;50.278;19.134;2023-07-13T09:38:03;19.00;19.00;14.00
69746;PMS7003;57018;50.278;19.134;2023-07-13T09:40:42;17.00;17.00;11.50
69746;PMS7003;57018;50.278;19.134;2023-07-13T09:43:20;18.00;17.00;13.50
69746;PMS7003;57018;50.278;19.134;2023-07-13T09:45:51;17.00;13.00;11.00
69746;PMS7003;57018;50.278;19.134;2023-07-13T09:48:20;18.00;17.00;13.00
69746;PMS7003;57018;50.278;19.134;2023-07-13T09:50:53;21.00;21.00;15.00
69746;PMS7003;57018;50.278;19.134;2023-07-13T09:53:24;23.00;19.00;13.50
69746;PMS7003;57018;50.278;19.134;2023-07-13T09:56:00;21.00;19.00;13.00
69746;PMS7003;57018;50.278;19.134;2023-07-13T09:58:30;20.00;20.00;15.00
69746;PMS7003;57018;50.278;19.134;2023-07-13T10:01:03;20.50;17.00;11.50
69746;PMS7003;57018;50.278;19.134;2023-07-13T10:03:34;18.00;14.00;12.00
69746;PMS7003;57018;50.278;19.134;2023-07-13T10:06:11;19.00;18.00;13.00
69746;PMS7003;57018;50.278;19.134;2023-07-13T10:08:43;17.33;16.33;12.00
69746;PMS7003;57018;50.278;19.134;2023-07-13T10:11:17;14.33;14.33;10.33
69746;PMS7003;57018;50.278;19.134;2023-07-13T10:13:50;15.67;15.67;10.00
69746;PMS7003;57018;50.278;19.134;2023-07-13T10:16:23;12.00;12.00;7.00
69746;PMS7003;57018;50.278;19.134;2023-07-13T10:19:00;10.00;10.00;7.50
69746;PMS7003;57018;50.278;19.134;2023-07-13T10:21:34;13.67;11.33;8.33
69746;PMS7003;57018;50.278;19.134;2023-07-13T10:24:19;13.00;10.00;9.00
69746;PMS7003;57018;50.278;19.134;2023-07-13T10:26:52;14.00;14.00;8.00
69746;PMS7003;57018;50.278;19.134;2023-07-13T10:29:25;13.00;12.00;10.00
69746;PMS7003;57018;50.278;19.134;2023-07-13T10:31:57;10.00;10.00;8.50
69746;PMS7003;57018;50.278;19.134;2023-07-13T10:34:27;8.00;8.00;6.00
69746;PMS7003;57018;50.278;19.134;2023-07-13T10:36:58;14.00;13.00;12.00
69746;PMS7003;57018;50.278;19.134;2023-07-13T10:39:28;11.00;8.00;7.00
69746;PMS7003;57018;50.278;19.134;2023-07-13T10:42:04;11.00;9.00;8.00
69746;PMS7003;57018;50.278;19.134;2023-07-13T10:44:39;11.00;10.50;9.00
69746;PMS7003;57018;50.278;19.134;2023-07-13T10:47:13;11.50;11.00;9.00
69746;PMS7003;57018;50.278;19.134;2023-07-13T10:49:45;13.00;12.00;9.00
69746;PMS7003;57018;50.278;19.134;2023-07-13T10:58:03;12.33;12.00;8.67
69746;PMS7003;57018;50.278;19.134;2023-07-13T11:00:48;9.00;9.00;7.00
69746;PMS7003;57018;50.278;19.134;2023-07-13T11:03:21;13.25;12.25;9.50
69746;PMS7003;57018;50.278;19.134;2023-07-13T11:06:05;12.00;12.00;8.00
69746;PMS7003;57018;50.278;19.134;2023-07-13T11:08:57;11.00;11.00;8.00
69746;PMS7003;57018;50.278;19.134;2023-07-13T11:11:46;9.00;9.00;7.00
69746;PMS7003;57018;50.278;19.134;2023-07-13T11:14:32;12.00;11.00;9.00
69746;PMS7003;57018;50.278;19.134;2023-07-13T11:20:18;12.50;10.50;7.00
69746;PMS7003;57018;50.278;19.134;2023-07-13T11:23:20;8.50;8.50;7.50
69746;PMS7003;57018;50.278;19.134;2023-07-13T11:26:00;13.00;11.00;8.00
69746;PMS7003;57018;50.278;19.134;2023-07-13T11:28:31;9.25;8.50;7.00
69746;PMS7003;57018;50.278;19.134;2023-07-13T11:31:03;11.00;10.00;8.50
69746;PMS7003;57018;50.278;19.134;2023-07-13T11:33:56;14.00;13.50;8.50
69746;PMS7003;57018;50.278;19.134;2023-07-13T11:36:37;10.00;10.00;7.50
69746;PMS7003;57018;50.278;19.134;2023-07-13T11:39:16;9.00;8.00;5.00
69746;PMS7003;57018;50.278;19.134;2023-07-13T11:41:51;6.00;6.00;4.00
69746;PMS7003;57018;50.278;19.134;2023-07-13T11:44:24;16.00;11.00;8.00
69746;PMS7003;57018;50.278;19.134;2023-07-13T11:46:59;13.00;13.00;11.00
69746;PMS7003;57018;50.278;19.134;2023-07-13T11:49:40;12.00;9.50;7.50
69746;PMS7003;57018;50.278;19.134;2023-07-13T11:52:14;10.50;10.50;8.50
69746;PMS7003;57018;50.278;19.134;2023-07-13T11:54:49;13.00;11.00;8.00
69746;PMS7003;57018;50.278;19.134;2023-07-13T11:57:25;9.00;7.00;5.00
69746;PMS7003;57018;50.278;19.134;2023-07-13T12:00:00;9.50;9.50;6.00
69746;PMS7003;57018;50.278;19.134;2023-07-13T12:02:40;7.00;6.00;4.00
69746;PMS7003;57018;50.278;19.134;2023-07-13T12:05:15;7.00;7.00;4.00
69746;PMS7003;57018;50.278;19.134;2023-07-13T12:07:47;12.00;10.00;7.00
69746;PMS7003;57018;50.278;19.134;2023-07-13T12:10:23;5.00;5.00;4.00
69746;PMS7003;57018;50.278;19.134;2023-07-13T12:12:57;6.50;6.50;4.00
69746;PMS7003;57018;50.278;19.134;2023-07-13T12:15:32;10.00;10.00;8.00
69746;PMS7003;57018;50.278;19.134;2023-07-13T12:18:14;8.00;8.00;5.00
69746;PMS7003;57018;50.278;19.134;2023-07-13T12:20:49;9.00;9.00;6.00
69746;PMS7003;57018;50.278;19.134;2023-07-13T12:23:22;7.50;7.50;6.00
69746;PMS7003;57018;50.278;19.134;2023-07-13T12:25:56;10.00;8.00;6.00
69746;PMS7003;57018;50.278;19.134;2023-07-13T12:28:32;6.00;6.00;4.00
69746;PMS7003;57018;50.278;19.134;2023-07-13T12:31:06;8.50;7.50;5.00
69746;PMS7003;57018;50.278;19.134;2023-07-13T12:33:57;10.00;10.00;7.00
69746;PMS7003;57018;50.278;19.134;2023-07-13T12:36:30;8.25;7.25;5.75
69746;PMS7003;57018;50.278;19.134;2023-07-13T12:39:14;8.33;7.00;4.33
69746;PMS7003;57018;50.278;19.134;2023-07-13T12:41:48;9.33;7.67;5.67
69746;PMS7003;57018;50.278;19.134;2023-07-13T12:44:26;7.50;7.50;6.00
69746;PMS7003;57018;50.278;19.134;2023-07-13T12:47:03;7.00;7.00;5.00
69746;PMS7003;57018;50.278;19.134;2023-07-13T12:49:40;8.00;6.00;5.00
69746;PMS7003;57018;50.278;19.134;2023-07-13T12:52:14;7.00;7.00;5.33
69746;PMS7003;57018;50.278;19.134;2023-07-13T12:54:56;6.00;6.00;4.00
69746;PMS7003;57018;50.278;19.134;2023-07-13T13:00:21;7.50;7.50;5.25
69746;PMS7003;57018;50.278;19.134;2023-07-13T13:02:55;7.00;6.00;5.00
69746;PMS7003;57018;50.278;19.134;2023-07-13T13:05:27;10.00;9.00;6.00
69746;PMS7003;57018;50.278;19.134;2023-07-13T13:08:01;7.00;7.00;5.00
69746;PMS7003;57018;50.278;19.134;2023-07-13T13:10:31;8.00;8.00;6.00
69746;PMS7003;57018;50.278;19.134;2023-07-13T13:13:03;8.00;8.00;5.00
69746;PMS7003;57018;50.278;19.134;2023-07-13T13:15:32;6.33;6.33;4.33
69746;PMS7003;57018;50.278;19.134;2023-07-13T13:18:08;8.00;8.00;7.00
69746;PMS7003;57018;50.278;19.134;2023-07-13T13:20:45;12.00;11.00;8.00
69746;PMS7003;57018;50.278;19.134;2023-07-13T13:23:16;7.00;7.00;6.50
69746;PMS7003;57018;50.278;19.134;2023-07-13T13:25:47;6.00;6.00;5.00
69746;PMS7003;57018;50.278;19.134;2023-07-13T13:28:19;11.00;10.00;6.00
69746;PMS7003;57018;50.278;19.134;2023-07-13T13:30:50;11.00;10.00;7.00
69746;PMS7003;57018;50.278;19.134;2023-07-13T13:35:50;16.00;14.00;10.00
69746;PMS7003;57018;50.278;19.134;2023-07-13T13:38:22;14.00;14.00;10.00
69746;PMS7003;57018;50.278;19.134;2023-07-13T13:40:55;12.00;12.00;8.00
69746;PMS7003;57018;50.278;19.134;2023-07-13T13:43:25;12.00;11.00;10.00
69746;PMS7003;57018;50.278;19.134;2023-07-13T13:45:56;11.00;11.00;8.50
69746;PMS7003;57018;50.278;19.134;2023-07-13T13:48:29;13.00;13.00;9.00
69746;PMS7003;57018;50.278;19.134;2023-07-13T13:51:06;11.00;11.00;7.00
69746;PMS7003;57018;50.278;19.134;2023-07-13T13:53:43;12.50;12.50;8.00
69746;PMS7003;57018;50.278;19.134;2023-07-13T13:56:13;11.00;11.00;8.00
69746;PMS7003;57018;50.278;19.134;2023-07-13T13:58:45;12.00;12.00;8.00
69746;PMS7003;57018;50.278;19.134;2023-07-13T14:01:17;12.00;12.00;9.50
69746;PMS7003;57018;50.278;19.134;2023-07-13T14:03:49;14.50;14.50;9.50
69746;PMS7003;57018;50.278;19.134;2023-07-13T14:06:19;12.50;11.50;7.50
69746;PMS7003;57018;50.278;19.134;2023-07-13T14:08:49;12.00;11.50;8.00
69746;PMS7003;57018;50.278;19.134;2023-07-13T14:11:20;13.00;13.00;9.00
69746;PMS7003;57018;50.278;19.134;2023-07-13T14:13:51;10.00;10.00;8.00
69746;PMS7003;57018;50.278;19.134;2023-07-13T14:16:25;11.00;10.50;7.00
69746;PMS7003;57018;50.278;19.134;2023-07-13T14:18:59;7.50;7.50;5.50
69746;PMS7003;57018;50.278;19.134;2023-07-13T14:21:29;10.00;10.00;7.33
69746;PMS7003;57018;50.278;19.134;2023-07-13T14:23:59;7.00;7.00;6.00
69746;PMS7003;57018;50.278;19.134;2023-07-13T14:26:29;7.00;7.00;5.67
69746;PMS7003;57018;50.278;19.134;2023-07-13T14:29:10;9.00;7.00;6.00
69746;PMS7003;57018;50.278;19.134;2023-07-13T14:31:43;6.00;6.00;6.00
69746;PMS7003;57018;50.278;19.134;2023-07-13T14:34:13;6.50;6.50;5.00
69746;PMS7003;57018;50.278;19.134;2023-07-13T14:36:44;5.00;5.00;4.00
69746;PMS7003;57018;50.278;19.134;2023-07-13T14:39:16;7.00;7.00;5.00